sensor_id;sensor_type;location;lat;lon;timestamp;pressure;altitude;pressure_sealevel;temperature;humidity
19108;BME280;9686;48.832;9.126;2023-03-03T00:00:08;98364.81;;;5.08;nan
19108;BME280;9686;48.832;9.126;2023-03-03T00:02:33;98371.41;;;4.93;nan
19108;BME280;9686;48.832;9.126;2023-03-03T00:04:59;98364.09;;;5.16;nan
19108;BME280;9686;48.832;9.126;2023-03-03T00:07:24;98365.72;;;5.11;nan
19108;BME280;9686;48.832;9.126;2023-03-03T00:09:49;98365.56;;;5.02;nan
19108;BME280;9686;48.832;9.126;2023-03-03T00:12:26;98364.72;;;5.03;nan
19108;BME280;9686;48.832;9.126;2023-03-03T00:14:52;98372.59;;;5.11;nan
19108;BME280;9686;48.832;9.126;2023-03-03T00:17:26;98371.94;;;5.21;nan
19108;BME280;9686;48.832;9.126;2023-03-03T00:19:51;98368.41;;;5.17;nan
19108;BME280;9686;48.832;9.126;2023-03-03T00:22:29;98378.84;;;5.22;nan
19108;BME280;9686;48.832;9.126;2023-03-03T00:24:59;98370.13;;;5.17;nan
19108;BME280;9686;48.832;9.126;2023-03-03T00:27:29;98369.16;;;5.10;nan
19108;BME280;9686;48.832;9.126;2023-03-03T00:29:57;98374.34;;;5.12;nan
19108;BME280;9686;48.832;9.126;2023-03-03T00:32:27;98375.03;;;5.02;nan
19108;BME280;9686;48.832;9.126;2023-03-03T00:35:01;98370.88;;;5.10;nan
19108;BME280;9686;48.832;9.126;2023-03-03T00:37:41;98371.72;;;5.09;nan
19108;BME280;9686;48.832;9.126;2023-03-03T00:40:35;98364.97;;;5.18;nan
19108;BME280;9686;48.832;9.126;2023-03-03T00:43:01;98366.47;;;5.04;nan
19108;BME280;9686;48.832;9.126;2023-03-03T00:45:51;98378.56;;;5.07;nan
19108;BME280;9686;48.832;9.126;2023-03-03T00:51:09;98360.88;;;4.81;nan
19108;BME280;9686;48.832;9.126;2023-03-03T00:53:43;98363.56;;;4.87;nan
19108;BME280;9686;48.832;9.126;2023-03-03T00:56:08;98360.84;;;4.80;nan
19108;BME280;9686;48.832;9.126;2023-03-03T00:58:33;98358.38;;;4.86;nan
19108;BME280;9686;48.832;9.126;2023-03-03T01:00:59;98360.13;;;4.87;nan
19108;BME280;9686;48.832;9.126;2023-03-03T01:03:25;98366.00;;;4.80;nan
19108;BME280;9686;48.832;9.126;2023-03-03T01:05:52;98361.78;;;4.83;nan
19108;BME280;9686;48.832;9.126;2023-03-03T01:08:19;98358.09;;;4.71;nan
19108;BME280;9686;48.832;9.126;2023-03-03T01:10:53;98347.78;;;4.71;nan
19108;BME280;9686;48.832;9.126;2023-03-03T01:13:23;98352.06;;;4.70;nan
19108;BME280;9686;48.832;9.126;2023-03-03T01:15:51;98353.94;;;4.79;nan
19108;BME280;9686;48.832;9.126;2023-03-03T01:18:17;98349.88;;;4.93;nan
19108;BME280;9686;48.832;9.126;2023-03-03T01:20:42;98360.03;;;4.82;nan
19108;BME280;9686;48.832;9.126;2023-03-03T01:23:08;98352.94;;;4.71;nan
19108;BME280;9686;48.832;9.126;2023-03-03T01:25:34;98362.06;;;4.99;nan
19108;BME280;9686;48.832;9.126;2023-03-03T01:27:59;98355.00;;;4.90;nan
19108;BME280;9686;48.832;9.126;2023-03-03T01:30:25;98360.13;;;4.87;nan
19108;BME280;9686;48.832;9.126;2023-03-03T01:32:51;98368.69;;;4.84;nan
19108;BME280;9686;48.832;9.126;2023-03-03T01:35:17;98365.47;;;4.96;nan
19108;BME280;9686;48.832;9.126;2023-03-03T01:37:42;98368.91;;;4.97;nan
19108;BME280;9686;48.832;9.126;2023-03-03T01:40:14;98366.53;;;5.07;nan
19108;BME280;9686;48.832;9.126;2023-03-03T01:42:41;98374.28;;;5.07;nan
19108;BME280;9686;48.832;9.126;2023-03-03T01:45:24;98364.63;;;4.97;nan
19108;BME280;9686;48.832;9.126;2023-03-03T01:48:13;98367.13;;;4.94;nan
19108;BME280;9686;48.832;9.126;2023-03-03T01:51:02;98361.22;;;5.00;nan
19108;BME280;9686;48.832;9.126;2023-03-03T01:53:35;98362.00;;;4.95;nan
19108;BME280;9686;48.832;9.126;2023-03-03T01:56:02;98358.50;;;4.93;nan
19108;BME280;9686;48.832;9.126;2023-03-03T01:58:31;98346.47;;;4.94;nan
19108;BME280;9686;48.832;9.126;2023-03-03T02:01:02;98351.75;;;5.00;nan
19108;BME280;9686;48.832;9.126;2023-03-03T02:03:28;98348.31;;;5.00;nan
19108;BME280;9686;48.832;9.126;2023-03-03T02:05:59;98331.09;;;5.00;nan
19108;BME280;9686;48.832;9.126;2023-03-03T02:08:33;98337.34;;;5.13;nan
19108;BME280;9686;48.832;9.126;2023-03-03T02:11:02;98329.47;;;5.07;nan
19108;BME280;9686;48.832;9.126;2023-03-03T02:13:28;98332.88;;;5.04;nan
19108;BME280;9686;48.832;9.126;2023-03-03T02:15:54;98331.88;;;4.94;nan
19108;BME280;9686;48.832;9.126;2023-03-03T02:18:20;98333.31;;;4.80;nan
19108;BME280;9686;48.832;9.126;2023-03-03T02:21:17;98334.13;;;4.78;nan
19108;BME280;9686;48.832;9.126;2023-03-03T02:24:24;98332.28;;;4.71;nan
19108;BME280;9686;48.832;9.126;2023-03-03T02:26:51;98335.69;;;4.70;nan
19108;BME280;9686;48.832;9.126;2023-03-03T02:29:17;98336.38;;;4.61;nan
19108;BME280;9686;48.832;9.126;2023-03-03T02:31:42;98330.41;;;4.65;nan
19108;BME280;9686;48.832;9.126;2023-03-03T02:34:08;98326.47;;;4.82;nan
19108;BME280;9686;48.832;9.126;2023-03-03T02:36:35;98332.13;;;4.64;nan
19108;BME280;9686;48.832;9.126;2023-03-03T02:39:23;98334.56;;;4.57;nan
19108;BME280;9686;48.832;9.126;2023-03-03T02:44:26;98336.69;;;4.34;nan
19108;BME280;9686;48.832;9.126;2023-03-03T02:46:54;98338.25;;;4.26;nan
19108;BME280;9686;48.832;9.126;2023-03-03T02:49:22;98344.50;;;4.37;nan
19108;BME280;9686;48.832;9.126;2023-03-03T02:51:47;98340.22;;;4.39;nan
19108;BME280;9686;48.832;9.126;2023-03-03T02:54:16;98350.09;;;4.58;nan
19108;BME280;9686;48.832;9.126;2023-03-03T02:56:41;98351.03;;;4.62;nan
19108;BME280;9686;48.832;9.126;2023-03-03T02:59:07;98339.16;;;4.70;nan
19108;BME280;9686;48.832;9.126;2023-03-03T03:01:33;98339.34;;;4.81;nan
19108;BME280;9686;48.832;9.126;2023-03-03T03:04:15;98346.16;;;4.77;nan
19108;BME280;9686;48.832;9.126;2023-03-03T03:06:42;98342.91;;;4.87;nan
19108;BME280;9686;48.832;9.126;2023-03-03T03:09:08;98349.84;;;4.90;nan
19108;BME280;9686;48.832;9.126;2023-03-03T03:11:34;98345.69;;;4.98;nan
19108;BME280;9686;48.832;9.126;2023-03-03T03:14:01;98347.31;;;4.93;nan
19108;BME280;9686;48.832;9.126;2023-03-03T03:16:27;98337.63;;;4.81;nan
19108;BME280;9686;48.832;9.126;2023-03-03T03:18:52;98352.16;;;4.76;nan
19108;BME280;9686;48.832;9.126;2023-03-03T03:21:17;98346.13;;;4.74;nan
19108;BME280;9686;48.832;9.126;2023-03-03T03:23:43;98347.91;;;4.78;nan
19108;BME280;9686;48.832;9.126;2023-03-03T03:26:09;98352.09;;;4.72;nan
19108;BME280;9686;48.832;9.126;2023-03-03T03:28:35;98353.06;;;4.78;nan
19108;BME280;9686;48.832;9.126;2023-03-03T03:31:01;98356.72;;;4.89;nan
19108;BME280;9686;48.832;9.126;2023-03-03T03:33:26;98348.06;;;4.87;nan
19108;BME280;9686;48.832;9.126;2023-03-03T03:35:53;98344.59;;;4.85;nan
19108;BME280;9686;48.832;9.126;2023-03-03T03:38:20;98354.06;;;4.86;nan
19108;BME280;9686;48.832;9.126;2023-03-03T03:40:46;98353.22;;;4.86;nan
19108;BME280;9686;48.832;9.126;2023-03-03T03:43:11;98353.13;;;4.81;nan
19108;BME280;9686;48.832;9.126;2023-03-03T03:45:36;98349.78;;;4.87;nan
19108;BME280;9686;48.832;9.126;2023-03-03T03:48:02;98354.22;;;4.94;nan
19108;BME280;9686;48.832;9.126;2023-03-03T03:50:27;98355.91;;;4.93;nan
19108;BME280;9686;48.832;9.126;2023-03-03T03:52:53;98351.03;;;5.07;nan
19108;BME280;9686;48.832;9.126;2023-03-03T03:55:18;98349.84;;;4.90;nan
19108;BME280;9686;48.832;9.126;2023-03-03T03:57:43;98352.38;;;4.87;nan
19108;BME280;9686;48.832;9.126;2023-03-03T04:00:10;98345.53;;;4.90;nan
19108;BME280;9686;48.832;9.126;2023-03-03T04:02:35;98350.53;;;4.81;nan
19108;BME280;9686;48.832;9.126;2023-03-03T04:05:01;98345.47;;;4.87;nan
19108;BME280;9686;48.832;9.126;2023-03-03T04:07:27;98347.28;;;4.91;nan
19108;BME280;9686;48.832;9.126;2023-03-03T04:09:52;98351.72;;;4.97;nan
19108;BME280;9686;48.832;9.126;2023-03-03T04:12:18;98344.53;;;4.82;nan
19108;BME280;9686;48.832;9.126;2023-03-03T04:14:43;98351.56;;;4.91;nan
19108;BME280;9686;48.832;9.126;2023-03-03T04:17:15;98349.13;;;4.97;nan
19108;BME280;9686;48.832;9.126;2023-03-03T04:19:40;98345.72;;;5.00;nan
19108;BME280;9686;48.832;9.126;2023-03-03T04:22:05;98350.88;;;4.98;nan
19108;BME280;9686;48.832;9.126;2023-03-03T04:24:31;98353.59;;;5.07;nan
19108;BME280;9686;48.832;9.126;2023-03-03T04:26:56;98358.78;;;5.09;nan
19108;BME280;9686;48.832;9.126;2023-03-03T04:29:21;98352.09;;;5.20;nan
19108;BME280;9686;48.832;9.126;2023-03-03T04:31:47;98359.09;;;5.25;nan
19108;BME280;9686;48.832;9.126;2023-03-03T04:34:12;98356.63;;;5.32;nan
19108;BME280;9686;48.832;9.126;2023-03-03T04:36:38;98357.38;;;5.26;nan
19108;BME280;9686;48.832;9.126;2023-03-03T04:39:03;98361.00;;;5.37;nan
19108;BME280;9686;48.832;9.126;2023-03-03T04:41:29;98356.63;;;5.32;nan
19108;BME280;9686;48.832;9.126;2023-03-03T04:43:54;98362.97;;;5.50;nan
19108;BME280;9686;48.832;9.126;2023-03-03T04:46:19;98367.16;;;5.44;nan
19108;BME280;9686;48.832;9.126;2023-03-03T04:48:45;98375.06;;;5.51;nan
19108;BME280;9686;48.832;9.126;2023-03-03T04:51:10;98374.22;;;5.52;nan
19108;BME280;9686;48.832;9.126;2023-03-03T04:53:35;98374.03;;;5.43;nan
19108;BME280;9686;48.832;9.126;2023-03-03T04:56:02;98377.47;;;5.42;nan
19108;BME280;9686;48.832;9.126;2023-03-03T04:58:29;98375.19;;;5.61;nan
19108;BME280;9686;48.832;9.126;2023-03-03T05:00:56;98381.13;;;5.53;nan
19108;BME280;9686;48.832;9.126;2023-03-03T05:03:22;98382.16;;;5.65;nan
19108;BME280;9686;48.832;9.126;2023-03-03T05:05:48;98382.97;;;5.62;nan
19108;BME280;9686;48.832;9.126;2023-03-03T05:08:13;98383.03;;;5.67;nan
19108;BME280;9686;48.832;9.126;2023-03-03T05:10:39;98380.59;;;5.74;nan
19108;BME280;9686;48.832;9.126;2023-03-03T05:13:05;98382.38;;;5.78;nan
19108;BME280;9686;48.832;9.126;2023-03-03T05:15:30;98375.72;;;5.93;nan
19108;BME280;9686;48.832;9.126;2023-03-03T05:17:56;98379.22;;;5.96;nan
19108;BME280;9686;48.832;9.126;2023-03-03T05:20:22;98379.19;;;5.95;nan
19108;BME280;9686;48.832;9.126;2023-03-03T05:22:47;98373.09;;;5.91;nan
19108;BME280;9686;48.832;9.126;2023-03-03T05:25:13;98375.78;;;5.97;nan
19108;BME280;9686;48.832;9.126;2023-03-03T05:27:38;98382.66;;;5.97;nan
19108;BME280;9686;48.832;9.126;2023-03-03T05:30:37;98378.31;;;5.93;nan
19108;BME280;9686;48.832;9.126;2023-03-03T05:33:16;98385.03;;;5.83;nan
19108;BME280;9686;48.832;9.126;2023-03-03T05:35:51;98377.34;;;5.87;nan
19108;BME280;9686;48.832;9.126;2023-03-03T05:38:21;98390.50;;;6.00;nan
19108;BME280;9686;48.832;9.126;2023-03-03T05:40:47;98394.94;;;6.08;nan
19108;BME280;9686;48.832;9.126;2023-03-03T05:43:14;98396.75;;;6.14;nan
19108;BME280;9686;48.832;9.126;2023-03-03T05:45:43;98400.09;;;6.07;nan
19108;BME280;9686;48.832;9.126;2023-03-03T05:48:08;98399.19;;;6.03;nan
19108;BME280;9686;48.832;9.126;2023-03-03T05:50:35;98401.97;;;6.18;nan
19108;BME280;9686;48.832;9.126;2023-03-03T05:53:01;98406.19;;;6.10;nan
19108;BME280;9686;48.832;9.126;2023-03-03T05:55:27;98406.06;;;6.03;nan
19108;BME280;9686;48.832;9.126;2023-03-03T05:57:52;98414.06;;;6.19;nan
19108;BME280;9686;48.832;9.126;2023-03-03T06:00:18;98407.13;;;6.17;nan
19108;BME280;9686;48.832;9.126;2023-03-03T06:02:43;98414.06;;;6.19;nan
19108;BME280;9686;48.832;9.126;2023-03-03T06:08:26;98419.25;;;6.21;nan
19108;BME280;9686;48.832;9.126;2023-03-03T06:11:08;98415.13;;;6.32;nan
19108;BME280;9686;48.832;9.126;2023-03-03T06:13:46;98418.59;;;6.34;nan
19108;BME280;9686;48.832;9.126;2023-03-03T06:16:12;98424.47;;;6.23;nan
19108;BME280;9686;48.832;9.126;2023-03-03T06:18:43;98417.63;;;6.26;nan
19108;BME280;9686;48.832;9.126;2023-03-03T06:21:11;98424.63;;;6.33;nan
19108;BME280;9686;48.832;9.126;2023-03-03T06:26:58;98423.75;;;6.33;nan
19108;BME280;9686;48.832;9.126;2023-03-03T06:29:24;98429.81;;;6.35;nan
19108;BME280;9686;48.832;9.126;2023-03-03T06:31:50;98432.34;;;6.29;nan
19108;BME280;9686;48.832;9.126;2023-03-03T06:34:19;98438.47;;;6.35;nan
19108;BME280;9686;48.832;9.126;2023-03-03T06:36:44;98437.69;;;6.41;nan
19108;BME280;9686;48.832;9.126;2023-03-03T06:39:11;98440.19;;;6.35;nan
19108;BME280;9686;48.832;9.126;2023-03-03T06:44:59;98443.13;;;6.59;nan
19108;BME280;9686;48.832;9.126;2023-03-03T06:48:06;98438.59;;;6.44;nan
19108;BME280;9686;48.832;9.126;2023-03-03T06:50:31;98449.00;;;6.49;nan
19108;BME280;9686;48.832;9.126;2023-03-03T06:56:26;98455.19;;;6.59;nan
19108;BME280;9686;48.832;9.126;2023-03-03T06:58:57;98458.75;;;6.67;nan
19108;BME280;9686;48.832;9.126;2023-03-03T07:01:23;98456.88;;;6.55;nan
19108;BME280;9686;48.832;9.126;2023-03-03T07:03:49;98457.88;;;6.66;nan
19108;BME280;9686;48.832;9.126;2023-03-03T07:06:24;98462.91;;;6.54;nan
19108;BME280;9686;48.832;9.126;2023-03-03T07:08:52;98463.78;;;6.56;nan
19108;BME280;9686;48.832;9.126;2023-03-03T07:11:22;98465.63;;;6.63;nan
19108;BME280;9686;48.832;9.126;2023-03-03T07:13:53;98468.09;;;6.56;nan
19108;BME280;9686;48.832;9.126;2023-03-03T07:16:26;98473.50;;;6.72;nan
19108;BME280;9686;48.832;9.126;2023-03-03T07:18:54;98471.78;;;6.73;nan
19108;BME280;9686;48.832;9.126;2023-03-03T07:21:29;98477.81;;;6.73;nan
19108;BME280;9686;48.832;9.126;2023-03-03T07:24:38;98470.91;;;6.72;nan
19108;BME280;9686;48.832;9.126;2023-03-03T07:27:29;98468.28;;;6.69;nan
19108;BME280;9686;48.832;9.126;2023-03-03T07:30:25;98469.16;;;6.71;nan
19108;BME280;9686;48.832;9.126;2023-03-03T07:33:35;98476.19;;;6.77;nan
19108;BME280;9686;48.832;9.126;2023-03-03T07:39:39;98483.84;;;6.72;nan
19108;BME280;9686;48.832;9.126;2023-03-03T07:42:40;98474.56;;;6.87;nan
19108;BME280;9686;48.832;9.126;2023-03-03T07:45:26;98475.47;;;6.90;nan
19108;BME280;9686;48.832;9.126;2023-03-03T07:57:28;98489.31;;;6.94;nan
19108;BME280;9686;48.832;9.126;2023-03-03T08:02:47;98495.38;;;6.93;nan
19108;BME280;9686;48.832;9.126;2023-03-03T08:08:46;98511.22;;;7.16;nan
19108;BME280;9686;48.832;9.126;2023-03-03T08:14:14;98509.50;;;7.16;nan
19108;BME280;9686;48.832;9.126;2023-03-03T08:20:50;98502.66;;;7.23;nan
19108;BME280;9686;48.832;9.126;2023-03-03T08:23:43;98506.22;;;7.29;nan
19108;BME280;9686;48.832;9.126;2023-03-03T08:26:24;98510.28;;;7.09;nan
19108;BME280;9686;48.832;9.126;2023-03-03T08:29:15;98509.53;;;7.21;nan
19108;BME280;9686;48.832;9.126;2023-03-03T08:31:41;98500.97;;;7.28;nan
19108;BME280;9686;48.832;9.126;2023-03-03T08:34:09;98508.94;;;7.45;nan
19108;BME280;9686;48.832;9.126;2023-03-03T08:36:37;98499.53;;;7.54;nan
19108;BME280;9686;48.832;9.126;2023-03-03T08:39:26;98503.16;;;7.68;nan
19108;BME280;9686;48.832;9.126;2023-03-03T08:41:56;98498.66;;;7.52;nan
19108;BME280;9686;48.832;9.126;2023-03-03T08:44:28;98493.34;;;7.40;nan
19108;BME280;9686;48.832;9.126;2023-03-03T08:50:28;98496.16;;;7.58;nan
19108;BME280;9686;48.832;9.126;2023-03-03T08:56:19;98503.25;;;7.79;nan
19108;BME280;9686;48.832;9.126;2023-03-03T09:00:19;98505.03;;;7.83;nan
19108;BME280;9686;48.832;9.126;2023-03-03T09:02:24;98503.59;;;8.14;nan
19108;BME280;9686;48.832;9.126;2023-03-03T09:05:25;98518.22;;;8.06;nan
19108;BME280;9686;48.832;9.126;2023-03-03T09:08:10;98512.28;;;8.18;nan
19108;BME280;9686;48.832;9.126;2023-03-03T09:10:37;98518.63;;;8.55;nan
19108;BME280;9686;48.832;9.126;2023-03-03T09:13:22;98522.25;;;8.75;nan
19108;BME280;9686;48.832;9.126;2023-03-03T09:15:55;98525.06;;;9.13;nan
19108;BME280;9686;48.832;9.126;2023-03-03T09:32:25;98529.53;;;9.49;nan
19108;BME280;9686;48.832;9.126;2023-03-03T09:35:37;98536.34;;;9.15;nan
19108;BME280;9686;48.832;9.126;2023-03-03T09:38:29;98533.59;;;8.88;nan
19108;BME280;9686;48.832;9.126;2023-03-03T10:21:09;98536.59;;;10.13;nan
19108;BME280;9686;48.832;9.126;2023-03-03T10:23:55;98525.38;;;10.28;nan
19108;BME280;9686;48.832;9.126;2023-03-03T10:26:57;98528.84;;;10.39;nan
19108;BME280;9686;48.832;9.126;2023-03-03T11:19:40;98536.28;;;11.78;nan
19108;BME280;9686;48.832;9.126;2023-03-03T12:13:06;98495.44;;;12.75;nan
19108;BME280;9686;48.832;9.126;2023-03-03T12:36:29;98481.84;;;16.16;nan
19108;BME280;9686;48.832;9.126;2023-03-03T12:43:01;98479.91;;;15.46;nan
19108;BME280;9686;48.832;9.126;2023-03-03T12:45:41;98464.94;;;14.61;nan
19108;BME280;9686;48.832;9.126;2023-03-03T13:04:23;98473.81;;;12.59;nan
19108;BME280;9686;48.832;9.126;2023-03-03T13:07:34;98470.72;;;12.16;nan
19108;BME280;9686;48.832;9.126;2023-03-03T13:13:12;98477.44;;;12.44;nan
19108;BME280;9686;48.832;9.126;2023-03-03T13:19:27;98475.22;;;12.00;nan
19108;BME280;9686;48.832;9.126;2023-03-03T13:25:29;98469.97;;;12.03;nan
19108;BME280;9686;48.832;9.126;2023-03-03T14:07:20;98435.59;;;12.44;nan
19108;BME280;9686;48.832;9.126;2023-03-03T14:13:11;98443.41;;;12.52;nan
19108;BME280;9686;48.832;9.126;2023-03-03T14:15:52;98439.28;;;12.25;nan
19108;BME280;9686;48.832;9.126;2023-03-03T14:18:38;98434.09;;;12.19;nan
19108;BME280;9686;48.832;9.126;2023-03-03T14:21:18;98426.84;;;12.51;nan
19108;BME280;9686;48.832;9.126;2023-03-03T14:23:52;98427.72;;;12.50;nan
19108;BME280;9686;48.832;9.126;2023-03-03T14:26:23;98429.47;;;12.47;nan
19108;BME280;9686;48.832;9.126;2023-03-03T14:32:24;98433.75;;;12.57;nan
19108;BME280;9686;48.832;9.126;2023-03-03T14:42:08;98427.63;;;12.59;nan
19108;BME280;9686;48.832;9.126;2023-03-03T14:50:39;98425.59;;;12.84;nan
19108;BME280;9686;48.832;9.126;2023-03-03T14:56:36;98430.88;;;12.80;nan
19108;BME280;9686;48.832;9.126;2023-03-03T15:02:56;98423.41;;;13.21;nan
19108;BME280;9686;48.832;9.126;2023-03-03T15:08:44;98416.53;;;13.13;nan
19108;BME280;9686;48.832;9.126;2023-03-03T15:14:42;98408.84;;;12.97;nan
19108;BME280;9686;48.832;9.126;2023-03-03T15:20:49;98411.56;;;12.91;nan
19108;BME280;9686;48.832;9.126;2023-03-03T15:44:13;98399.72;;;13.32;nan
19108;BME280;9686;48.832;9.126;2023-03-03T16:08:19;98408.59;;;13.20;nan
19108;BME280;9686;48.832;9.126;2023-03-03T16:40:56;98443.91;;;11.92;nan
19108;BME280;9686;48.832;9.126;2023-03-03T16:46:50;98449.25;;;11.72;nan
19108;BME280;9686;48.832;9.126;2023-03-03T16:52:52;98459.03;;;11.37;nan
19108;BME280;9686;48.832;9.126;2023-03-03T17:05:55;98466.22;;;10.80;nan
19108;BME280;9686;48.832;9.126;2023-03-03T17:08:57;98472.31;;;10.77;nan
19108;BME280;9686;48.832;9.126;2023-03-03T17:14:34;98468.84;;;10.65;nan
19108;BME280;9686;48.832;9.126;2023-03-03T17:17:43;98472.38;;;10.53;nan
19108;BME280;9686;48.832;9.126;2023-03-03T17:21:19;98479.31;;;10.34;nan
19108;BME280;9686;48.832;9.126;2023-03-03T17:37:46;98507.84;;;9.43;nan
19108;BME280;9686;48.832;9.126;2023-03-03T17:56:46;98527.69;;;9.16;nan
19108;BME280;9686;48.832;9.126;2023-03-03T18:22:44;98559.72;;;9.11;nan
19108;BME280;9686;48.832;9.126;2023-03-03T18:25:15;98561.44;;;9.10;nan
19108;BME280;9686;48.832;9.126;2023-03-03T18:35:40;98554.59;;;9.27;nan
19108;BME280;9686;48.832;9.126;2023-03-03T18:38:28;98570.19;;;9.26;nan
19108;BME280;9686;48.832;9.126;2023-03-03T18:41:00;98569.28;;;9.16;nan
19108;BME280;9686;48.832;9.126;2023-03-03T18:46:07;98581.34;;;9.08;nan
19108;BME280;9686;48.832;9.126;2023-03-03T18:49:12;98574.44;;;9.09;nan
19108;BME280;9686;48.832;9.126;2023-03-03T19:05:03;98593.25;;;8.68;nan
19108;BME280;9686;48.832;9.126;2023-03-03T19:08:01;98597.53;;;8.64;nan
19108;BME280;9686;48.832;9.126;2023-03-03T19:10:55;98594.94;;;8.61;nan
19108;BME280;9686;48.832;9.126;2023-03-03T19:13:43;98597.44;;;8.52;nan
19108;BME280;9686;48.832;9.126;2023-03-03T19:16:26;98602.63;;;8.51;nan
19108;BME280;9686;48.832;9.126;2023-03-03T19:21:31;98598.94;;;8.32;nan
19108;BME280;9686;48.832;9.126;2023-03-03T19:24:29;98599.03;;;8.37;nan
19108;BME280;9686;48.832;9.126;2023-03-03T19:27:27;98605.91;;;8.33;nan
19108;BME280;9686;48.832;9.126;2023-03-03T19:35:49;98609.25;;;8.21;nan
19108;BME280;9686;48.832;9.126;2023-03-03T19:40:58;98600.50;;;8.13;nan
19108;BME280;9686;48.832;9.126;2023-03-03T19:46:40;98608.19;;;8.02;nan
19108;BME280;9686;48.832;9.126;2023-03-03T19:52:18;98613.22;;;7.86;nan
19108;BME280;9686;48.832;9.126;2023-03-03T19:55:01;98613.22;;;7.86;nan
19108;BME280;9686;48.832;9.126;2023-03-03T20:00:29;98632.28;;;7.89;nan
19108;BME280;9686;48.832;9.126;2023-03-03T20:03:25;98626.94;;;7.77;nan
19108;BME280;9686;48.832;9.126;2023-03-03T20:06:20;98619.25;;;7.85;nan
19108;BME280;9686;48.832;9.126;2023-03-03T20:14:48;98626.09;;;7.80;nan
19108;BME280;9686;48.832;9.126;2023-03-03T20:25:39;98630.31;;;7.71;nan
19108;BME280;9686;48.832;9.126;2023-03-03T20:31:18;98630.25;;;7.65;nan
19108;BME280;9686;48.832;9.126;2023-03-03T20:33:51;98637.06;;;7.56;nan
19108;BME280;9686;48.832;9.126;2023-03-03T20:36:37;98632.75;;;7.56;nan
19108;BME280;9686;48.832;9.126;2023-03-03T20:39:13;98630.28;;;7.67;nan
19108;BME280;9686;48.832;9.126;2023-03-03T20:41:50;98631.97;;;7.63;nan
19108;BME280;9686;48.832;9.126;2023-03-03T20:50:58;98636.00;;;7.41;nan
19108;BME280;9686;48.832;9.126;2023-03-03T20:56:29;98648.94;;;7.40;nan
19108;BME280;9686;48.832;9.126;2023-03-03T20:59:10;98646.25;;;7.32;nan
19108;BME280;9686;48.832;9.126;2023-03-03T21:07:34;98654.75;;;7.22;nan
19108;BME280;9686;48.832;9.126;2023-03-03T21:10:13;98649.97;;;6.91;nan
19108;BME280;9686;48.832;9.126;2023-03-03T21:12:39;98654.59;;;7.10;nan
19108;BME280;9686;48.832;9.126;2023-03-03T21:15:30;98650.28;;;7.12;nan
19108;BME280;9686;48.832;9.126;2023-03-03T21:17:58;98661.53;;;7.13;nan
19108;BME280;9686;48.832;9.126;2023-03-03T21:20:32;98653.47;;;6.96;nan
19108;BME280;9686;48.832;9.126;2023-03-03T21:23:00;98661.16;;;6.88;nan
19108;BME280;9686;48.832;9.126;2023-03-03T21:28:17;98659.69;;;7.04;nan
19108;BME280;9686;48.832;9.126;2023-03-03T21:38:43;98658.09;;;7.15;nan
19108;BME280;9686;48.832;9.126;2023-03-03T21:41:10;98662.28;;;7.05;nan
19108;BME280;9686;48.832;9.126;2023-03-03T21:43:40;98659.69;;;7.05;nan
19108;BME280;9686;48.832;9.126;2023-03-03T21:46:06;98657.78;;;6.95;nan
19108;BME280;9686;48.832;9.126;2023-03-03T21:48:31;98663.03;;;7.00;nan
19108;BME280;9686;48.832;9.126;2023-03-03T21:50:57;98654.53;;;7.07;nan
19108;BME280;9686;48.832;9.126;2023-03-03T21:53:23;98654.53;;;7.07;nan
19108;BME280;9686;48.832;9.126;2023-03-03T21:55:51;98658.03;;;7.10;nan
19108;BME280;9686;48.832;9.126;2023-03-03T21:58:16;98658.03;;;7.10;nan
19108;BME280;9686;48.832;9.126;2023-03-03T22:00:42;98659.63;;;7.02;nan
19108;BME280;9686;48.832;9.126;2023-03-03T22:03:11;98666.31;;;6.87;nan
19108;BME280;9686;48.832;9.126;2023-03-03T22:05:37;98657.63;;;6.83;nan
19108;BME280;9686;48.832;9.126;2023-03-03T22:08:03;98661.78;;;6.75;nan
19108;BME280;9686;48.832;9.126;2023-03-03T22:10:29;98658.41;;;6.77;nan
19108;BME280;9686;48.832;9.126;2023-03-03T22:12:54;98663.59;;;6.77;nan
19108;BME280;9686;48.832;9.126;2023-03-03T22:15:19;98665.00;;;6.60;nan
19108;BME280;9686;48.832;9.126;2023-03-03T22:17:45;98666.81;;;6.66;nan
19108;BME280;9686;48.832;9.126;2023-03-03T22:20:11;98665.09;;;6.66;nan
19108;BME280;9686;48.832;9.126;2023-03-03T22:22:38;98661.72;;;6.70;nan
19108;BME280;9686;48.832;9.126;2023-03-03T22:25:04;98663.25;;;6.58;nan
19108;BME280;9686;48.832;9.126;2023-03-03T22:27:29;98658.13;;;6.62;nan
19108;BME280;9686;48.832;9.126;2023-03-03T22:29:55;98658.16;;;6.64;nan
19108;BME280;9686;48.832;9.126;2023-03-03T22:32:20;98652.19;;;6.68;nan
19108;BME280;9686;48.832;9.126;2023-03-03T22:34:46;98660.03;;;6.24;nan
19108;BME280;9686;48.832;9.126;2023-03-03T22:37:11;98656.47;;;6.17;nan
19108;BME280;9686;48.832;9.126;2023-03-03T22:39:36;98661.03;;;6.29;nan
19108;BME280;9686;48.832;9.126;2023-03-03T22:42:02;98660.78;;;6.17;nan
19108;BME280;9686;48.832;9.126;2023-03-03T22:44:27;98668.47;;;6.14;nan
19108;BME280;9686;48.832;9.126;2023-03-03T22:46:53;98668.72;;;6.26;nan
19108;BME280;9686;48.832;9.126;2023-03-03T22:49:18;98675.22;;;6.04;nan
19108;BME280;9686;48.832;9.126;2023-03-03T22:51:43;98672.75;;;6.12;nan
19108;BME280;9686;48.832;9.126;2023-03-03T22:54:09;98664.22;;;6.16;nan
19108;BME280;9686;48.832;9.126;2023-03-03T22:56:34;98668.72;;;6.25;nan
19108;BME280;9686;48.832;9.126;2023-03-03T22:58:59;98676.56;;;6.31;nan
19108;BME280;9686;48.832;9.126;2023-03-03T23:01:25;98672.75;;;6.12;nan
19108;BME280;9686;48.832;9.126;2023-03-03T23:03:50;98678.91;;;6.18;nan
19108;BME280;9686;48.832;9.126;2023-03-03T23:06:16;98678.03;;;6.16;nan
19108;BME280;9686;48.832;9.126;2023-03-03T23:08:41;98677.38;;;6.27;nan
19108;BME280;9686;48.832;9.126;2023-03-03T23:11:07;98689.94;;;6.07;nan
19108;BME280;9686;48.832;9.126;2023-03-03T23:13:32;98684.31;;;5.87;nan
19108;BME280;9686;48.832;9.126;2023-03-03T23:15:59;98683.25;;;5.76;nan
19108;BME280;9686;48.832;9.126;2023-03-03T23:18:26;98678.75;;;5.69;nan
19108;BME280;9686;48.832;9.126;2023-03-03T23:20:53;98684.69;;;5.63;nan
19108;BME280;9686;48.832;9.126;2023-03-03T23:23:18;98686.31;;;5.58;nan
19108;BME280;9686;48.832;9.126;2023-03-03T23:25:44;98685.34;;;5.53;nan
19108;BME280;9686;48.832;9.126;2023-03-03T23:28:10;98690.47;;;5.51;nan
19108;BME280;9686;48.832;9.126;2023-03-03T23:30:36;98690.50;;;5.53;nan
19108;BME280;9686;48.832;9.126;2023-03-03T23:33:01;98684.53;;;5.55;nan
19108;BME280;9686;48.832;9.126;2023-03-03T23:35:26;98686.81;;;5.43;nan
19108;BME280;9686;48.832;9.126;2023-03-03T23:37:52;98685.78;;;5.34;nan
19108;BME280;9686;48.832;9.126;2023-03-03T23:40:18;98689.19;;;5.33;nan